Time;durP1;ratioP1;P1;durP2;ratioP2;P2;SDS_P1;SDS_P2;PMS_P1;PMS_P2;Temp;Humidity;BMP_temperature;BMP_pressure;BME280_temperature;BME280_humidity;BME280_pressure;Samples;Min_cycle;Max_cycle;Signal;HPM_P1;HPM_P2
2022/03/18 00:02:14;;;;;;;8.20;4.00;;;7.50;80.00;;;;;;5030250;28;20488;-71
2022/03/18 00:04:40;;;;;;;7.95;3.03;;;7.50;80.50;;;;;;5026525;28;20048;-72
2022/03/18 00:07:05;;;;;;;8.40;3.17;;;7.40;80.80;;;;;;5041822;28;20021;-72
2022/03/18 00:09:32;;;;;;;6.82;2.50;;;7.40;81.70;;;;;;5027919;28;20041;-71
2022/03/18 00:11:58;;;;;;;7.78;3.17;;;7.30;81.10;;;;;;5026845;28;20041;-71
2022/03/18 00:14:23;;;;;;;6.47;2.80;;;7.20;82.20;;;;;;5030206;28;20033;-71
2022/03/18 00:16:49;;;;;;;6.55;3.10;;;7.20;82.60;;;;;;5025909;28;20040;-71
2022/03/18 00:19:15;;;;;;;7.35;3.30;;;7.20;82.90;;;;;;5027706;28;20033;-71
2022/03/18 00:21:41;;;;;;;9.23;3.38;;;7.10;83.20;;;;;;5026154;28;20117;-70
2022/03/18 00:24:07;;;;;;;9.68;3.42;;;7.10;82.30;;;;;;5027037;28;20032;-71
2022/03/18 00:26:33;;;;;;;9.40;2.97;;;7.10;83.10;;;;;;5029641;28;20105;-71
2022/03/18 00:28:59;;;;;;;12.30;3.10;;;7.10;83.40;;;;;;5026593;28;20030;-71
2022/03/18 00:31:25;;;;;;;13.18;4.90;;;7.00;83.20;;;;;;5026478;28;20037;-71
2022/03/18 00:33:51;;;;;;;9.85;4.45;;;7.00;84.30;;;;;;5028811;28;20039;-71
2022/03/18 00:36:17;;;;;;;9.93;3.50;;;7.10;84.20;;;;;;5030028;28;20038;-70
2022/03/18 00:38:43;;;;;;;10.30;3.35;;;7.00;83.90;;;;;;5029691;28;20029;-71
2022/03/18 00:41:09;;;;;;;6.18;3.05;;;7.00;83.60;;;;;;5033302;28;20044;-71
2022/03/18 00:43:35;;;;;;;6.70;2.78;;;7.00;83.70;;;;;;5029305;28;20398;-70
2022/03/18 00:46:01;;;;;;;7.53;2.70;;;6.90;83.20;;;;;;5023886;28;20030;-71
2022/03/18 00:53:55;;;;;;;8.70;3.08;;;6.90;83.60;;;;;;5026702;28;20045;-71
2022/03/18 00:56:21;;;;;;;8.18;3.00;;;6.80;84.70;;;;;;5028723;28;20021;-71
2022/03/18 00:58:47;;;;;;;9.15;3.03;;;6.80;84.80;;;;;;5024495;28;20574;-71
2022/03/18 01:01:13;;;;;;;9.45;3.28;;;6.80;84.00;;;;;;5027235;28;20108;-71
2022/03/18 01:03:39;;;;;;;7.82;3.05;;;6.80;84.30;;;;;;5026973;28;20041;-71
2022/03/18 01:06:04;;;;;;;7.18;2.92;;;6.70;84.70;;;;;;5034921;28;20025;-70
2022/03/18 01:08:31;;;;;;;8.55;3.20;;;6.60;85.30;;;;;;5029352;28;20053;-71
2022/03/18 01:10:57;;;;;;;9.57;2.88;;;6.60;84.80;;;;;;5027404;28;20558;-71
2022/03/18 01:13:23;;;;;;;9.45;3.00;;;6.60;85.40;;;;;;5025663;28;20026;-71
2022/03/18 01:15:49;;;;;;;6.68;2.53;;;6.60;84.60;;;;;;5026771;28;20041;-71
2022/03/18 01:18:15;;;;;;;9.57;3.10;;;6.60;85.50;;;;;;5026878;28;20100;-71
2022/03/18 01:20:41;;;;;;;6.47;3.00;;;6.50;84.20;;;;;;5027652;28;20037;-71
2022/03/18 01:23:07;;;;;;;5.78;2.80;;;6.40;85.10;;;;;;5029454;28;20029;-71
2022/03/18 01:25:34;;;;;;;9.27;2.90;;;6.40;85.70;;;;;;5026639;28;20539;-71
2022/03/18 01:28:01;;;;;;;10.60;2.90;;;6.30;86.20;;;;;;5026709;28;20037;-71
2022/03/18 01:30:29;;;;;;;8.43;3.08;;;6.30;86.00;;;;;;5027187;28;20072;-71
2022/03/18 01:32:55;;;;;;;8.07;2.67;;;5.60;85.20;;;;;;5027202;28;20034;-71
2022/03/18 01:35:21;;;;;;;6.53;2.78;;;6.40;85.40;;;;;;5028942;28;20130;-71
2022/03/18 01:37:47;;;;;;;6.22;2.70;;;6.20;85.50;;;;;;5026541;28;20112;-71
2022/03/18 01:40:13;;;;;;;7.00;2.95;;;8.00;87.00;;;;;;5026886;28;20611;-71
2022/03/18 01:42:39;;;;;;;10.18;2.58;;;6.50;86.90;;;;;;5024010;28;20036;-71
2022/03/18 01:45:06;;;;;;;9.70;2.90;;;6.30;85.60;;;;;;5030476;28;20477;-71
2022/03/18 01:47:32;;;;;;;7.03;2.60;;;6.60;86.10;;;;;;5031417;28;20033;-71
2022/03/18 01:49:58;;;;;;;7.03;3.10;;;6.50;85.40;;;;;;5026836;28;20037;-71
2022/03/18 01:52:24;;;;;;;6.80;2.72;;;4.40;84.80;;;;;;5024189;28;20069;-71
2022/03/18 01:54:52;;;;;;;8.57;2.97;;;6.20;86.90;;;;;;5026542;28;20078;-71
2022/03/18 01:57:20;;;;;;;7.53;2.95;;;6.10;85.60;;;;;;5024802;28;20033;-71
2022/03/18 01:59:47;;;;;;;6.50;2.80;;;6.10;86.40;;;;;;5031015;28;20025;-71
2022/03/18 02:02:14;;;;;;;7.43;3.00;;;6.10;86.90;;;;;;5030051;28;20750;-71
2022/03/18 02:04:41;;;;;;;7.75;2.80;;;6.10;86.80;;;;;;5025290;28;20026;-71
2022/03/18 02:07:07;;;;;;;10.65;3.00;;;6.00;87.10;;;;;;5032758;28;20465;-71
2022/03/18 02:09:36;;;;;;;6.38;2.80;;;6.00;87.10;;;;;;5032474;28;20033;-71
2022/03/18 02:12:03;;;;;;;8.23;2.90;;;6.00;87.20;;;;;;5023881;28;20668;-72
2022/03/18 02:14:33;;;;;;;8.48;2.80;;;6.00;87.30;;;;;;5031309;28;20025;-71
2022/03/18 02:17:01;;;;;;;17.45;3.55;;;6.00;87.40;;;;;;5035288;28;20029;-71
2022/03/18 02:19:27;;;;;;;6.00;3.25;;;5.90;87.10;;;;;;5032426;28;20029;-71
2022/03/18 02:21:55;;;;;;;6.07;2.53;;;5.90;87.20;;;;;;5026655;28;20678;-71
2022/03/18 02:24:21;;;;;;;7.57;3.22;;;5.80;86.90;;;;;;5026885;28;20399;-72
2022/03/18 02:26:49;;;;;;;7.70;2.50;;;5.80;87.00;;;;;;5028417;28;20029;-71
2022/03/18 02:29:17;;;;;;;6.57;2.70;;;5.70;87.10;;;;;;5037015;28;20052;-71
2022/03/18 02:31:43;;;;;;;9.73;3.00;;;5.70;87.50;;;;;;5035021;28;20036;-71
2022/03/18 02:34:09;;;;;;;9.65;3.30;;;5.70;87.70;;;;;;5026023;28;20061;-71
2022/03/18 02:36:35;;;;;;;7.05;2.72;;;5.70;88.70;;;;;;5029378;28;20107;-71
2022/03/18 02:39:01;;;;;;;5.80;2.63;;;5.60;89.00;;;;;;5028975;28;20021;-71
2022/03/18 02:41:27;;;;;;;8.65;2.78;;;5.60;89.40;;;;;;5028776;28;20025;-71
2022/03/18 02:43:53;;;;;;;8.60;2.58;;;5.60;89.00;;;;;;5026290;28;20060;-71
2022/03/18 02:46:20;;;;;;;8.40;2.40;;;5.60;89.00;;;;;;5023064;28;20400;-71
2022/03/18 02:48:45;;;;;;;7.35;2.70;;;5.40;88.30;;;;;;5031784;28;20082;-71
2022/03/18 02:51:13;;;;;;;9.73;2.70;;;;;;;;;;5027184;28;20487;-71
2022/03/18 02:53:39;;;;;;;7.75;3.00;;;5.50;89.10;;;;;;5029823;28;20473;-71
2022/03/18 02:56:05;;;;;;;11.05;2.70;;;5.50;90.10;;;;;;5030556;28;20147;-71
2022/03/18 02:58:32;;;;;;;12.05;2.78;;;5.50;90.10;;;;;;5031211;28;20436;-71
2022/03/18 03:00:57;;;;;;;5.63;2.35;;;5.90;90.40;;;;;;5028880;28;20044;-71
2022/03/18 03:03:23;;;;;;;9.93;2.65;;;5.50;90.40;;;;;;5028944;28;20026;-71
2022/03/18 03:08:50;;;;;;;10.73;2.72;;;5.60;90.70;;;;;;5014873;28;20123;-71
2022/03/18 03:11:16;;;;;;;8.70;2.60;;;5.60;90.60;;;;;;5010432;28;20065;-71
2022/03/18 03:13:42;;;;;;;12.23;2.35;;;5.60;90.70;;;;;;5007634;28;20045;-71
2022/03/18 03:16:08;;;;;;;6.07;2.50;;;5.60;90.70;;;;;;5005229;28;20041;-71
2022/03/18 03:18:35;;;;;;;10.05;2.50;;;5.50;90.30;;;;;;5009515;28;20188;-71
2022/03/18 03:21:01;;;;;;;7.35;2.60;;;5.60;90.30;;;;;;5010062;28;20072;-71
2022/03/18 03:23:26;;;;;;;8.90;2.42;;;5.50;90.40;;;;;;5003320;28;20041;-71
2022/03/18 03:25:56;;;;;;;8.30;2.50;;;5.60;90.50;;;;;;5003840;28;20445;-71
2022/03/18 03:28:22;;;;;;;9.65;2.75;;;5.60;90.90;;;;;;5007561;28;20052;-71
2022/03/18 03:30:49;;;;;;;9.90;2.83;;;5.60;91.00;;;;;;5004746;28;20045;-71
2022/03/18 03:33:16;;;;;;;9.10;2.42;;;5.60;91.10;;;;;;5003345;28;20045;-71
2022/03/18 03:35:42;;;;;;;10.85;2.80;;;5.60;91.40;;;;;;5013974;28;20116;-71
2022/03/18 03:38:14;;;;;;;10.27;2.88;;;5.70;92.40;;;;;;5009970;28;20022;-71
2022/03/18 03:40:41;;;;;;;15.82;2.92;;;5.60;93.00;;;;;;5007540;28;20041;-71
2022/03/18 03:43:08;;;;;;;8.45;2.90;;;5.70;93.50;;;;;;5018023;28;20408;-71
2022/03/18 03:45:37;;;;;;;12.52;2.85;;;5.70;94.20;;;;;;5028958;28;20040;-71
2022/03/18 03:48:05;;;;;;;10.20;3.15;;;5.80;95.20;;;;;;5027249;28;20026;-71
2022/03/18 03:50:31;;;;;;;11.90;3.13;;;4.80;95.50;;;;;;5030782;28;20546;-71
2022/03/18 03:52:57;;;;;;;10.85;2.92;;;5.60;96.20;;;;;;5028364;28;20411;-71
2022/03/18 03:55:23;;;;;;;11.80;3.05;;;5.60;96.20;;;;;;5032647;28;20063;-71
2022/03/18 03:57:48;;;;;;;10.88;2.72;;;5.90;96.40;;;;;;5028072;28;20464;-71
2022/03/18 04:00:16;;;;;;;9.85;3.13;;;6.10;96.60;;;;;;5026806;28;20056;-71
2022/03/18 04:02:45;;;;;;;16.08;3.40;;;6.80;96.20;;;;;;5028013;28;20147;-71
2022/03/18 04:05:12;;;;;;;12.27;2.97;;;6.00;96.20;;;;;;5028396;28;20109;-71
2022/03/18 04:07:40;;;;;;;14.13;3.33;;;6.00;95.70;;;;;;5025963;28;20112;-71
2022/03/18 04:10:08;;;;;;;12.02;3.38;;;5.50;96.70;;;;;;5028286;28;20029;-71
2022/03/18 04:12:35;;;;;;;11.10;3.10;;;6.00;97.10;;;;;;5028012;28;20467;-71
2022/03/18 04:15:04;;;;;;;13.85;3.35;;;5.70;97.30;;;;;;5026461;28;20091;-71
2022/03/18 04:17:46;;;;;;;15.13;3.15;;;6.00;97.50;;;;;;5026808;28;20113;-71
2022/03/18 04:20:17;;;;;;;13.27;3.90;;;5.50;97.50;;;;;;5027898;28;20595;-71
2022/03/18 04:22:44;;;;;;;14.30;3.13;;;7.30;98.30;;;;;;5026603;28;20052;-71
2022/03/18 04:25:10;;;;;;;12.57;3.40;;;6.30;98.40;;;;;;5025925;28;20045;-71
2022/03/18 04:27:37;;;;;;;12.35;2.78;;;6.10;98.30;;;;;;5026060;28;20032;-71
2022/03/18 04:30:07;;;;;;;8.80;3.00;;;6.10;98.10;;;;;;5026404;28;20058;-72
2022/03/18 04:32:33;;;;;;;12.48;3.38;;;6.00;98.60;;;;;;5029308;28;20026;-71
2022/03/18 04:34:59;;;;;;;10.48;3.33;;;;;;;;;;5028566;28;20798;-71
2022/03/18 04:37:25;;;;;;;15.27;3.95;;;;;;;;;;5027881;28;20022;-72
2022/03/18 04:39:52;;;;;;;9.15;3.08;;;6.30;99.20;;;;;;5042815;28;20037;-71
2022/03/18 04:42:17;;;;;;;11.98;3.42;;;6.40;99.40;;;;;;5025620;28;20105;-71
2022/03/18 04:44:43;;;;;;;12.85;3.50;;;6.00;99.60;;;;;;5027966;28;20108;-71
2022/03/18 04:47:10;;;;;;;10.88;3.72;;;6.10;99.90;;;;;;5030792;28;20029;-71
2022/03/18 04:49:36;;;;;;;13.82;3.58;;;6.80;99.90;;;;;;5024537;28;20416;-71
2022/03/18 04:52:02;;;;;;;13.05;3.53;;;6.60;99.90;;;;;;5026877;28;20550;-71
2022/03/18 04:54:28;;;;;;;14.05;4.13;;;6.90;99.90;;;;;;5023936;28;20400;-71
2022/03/18 04:59:40;;;;;;;13.23;3.83;;;6.00;99.90;;;;;;5027455;28;20040;-71
2022/03/18 05:02:06;;;;;;;12.57;4.90;;;6.10;99.90;;;;;;5028172;28;20104;-71
2022/03/18 05:04:32;;;;;;;15.63;4.90;;;5.80;99.90;;;;;;5028313;28;20029;-71
2022/03/18 05:06:57;;;;;;;13.65;4.63;;;5.90;99.90;;;;;;5025753;28;20048;-72
2022/03/18 05:09:25;;;;;;;15.88;5.00;;;6.00;99.90;;;;;;5026869;28;20041;-71
2022/03/18 05:11:51;;;;;;;12.13;4.15;;;6.30;99.90;;;;;;5026830;28;20029;-71
2022/03/18 05:14:17;;;;;;;12.90;4.30;;;6.30;99.90;;;;;;5057150;28;20163;-71
2022/03/18 05:16:43;;;;;;;15.77;4.90;;;5.20;99.90;;;;;;5025812;28;20112;-71
2022/03/18 05:19:10;;;;;;;15.07;4.82;;;6.40;99.90;;;;;;5028805;28;20121;-72
2022/03/18 05:21:36;;;;;;;14.18;4.88;;;6.00;99.90;;;;;;5031111;28;20013;-72
2022/03/18 05:24:03;;;;;;;16.60;4.93;;;6.20;99.90;;;;;;5027840;28;20037;-72
2022/03/18 05:26:29;;;;;;;11.93;4.78;;;6.10;99.90;;;;;;5033523;28;20025;-71
2022/03/18 05:28:55;;;;;;;13.20;4.45;;;4.90;99.90;;;;;;5030542;28;20028;-70
2022/03/18 05:31:21;;;;;;;15.40;4.43;;;5.30;99.90;;;;;;5025389;28;21071;-72
2022/03/18 05:33:47;;;;;;;12.43;4.43;;;4.80;99.90;;;;;;5024230;28;20400;-72
2022/03/18 05:36:14;;;;;;;12.75;4.65;;;4.80;99.90;;;;;;5024156;28;20018;-72
2022/03/18 05:38:39;;;;;;;17.63;5.43;;;4.80;99.90;;;;;;5027471;28;20017;-72
2022/03/18 05:41:05;;;;;;;19.05;4.75;;;6.10;99.90;;;;;;5024491;28;20048;-72
2022/03/18 05:43:31;;;;;;;16.65;5.03;;;5.90;99.90;;;;;;5024383;28;20084;-72
2022/03/18 05:45:57;;;;;;;14.50;4.88;;;6.00;99.90;;;;;;5029837;28;20021;-71
2022/03/18 05:48:22;;;;;;;13.63;4.90;;;6.20;99.90;;;;;;5026076;28;20033;-71
2022/03/18 05:50:49;;;;;;;13.70;4.57;;;;;;;;;;5027227;28;20043;-71
2022/03/18 05:53:14;;;;;;;12.60;4.68;;;5.90;99.90;;;;;;5029140;28;20128;-71
2022/03/18 05:58:25;;;;;;;16.70;5.65;;;6.00;99.90;;;;;;5027930;28;20550;-70
2022/03/18 06:00:50;;;;;;;13.52;5.45;;;6.00;99.90;;;;;;5027992;28;20036;-70
2022/03/18 06:03:16;;;;;;;14.15;5.13;;;;;;;;;;5027709;28;20086;-71
2022/03/18 06:05:43;;;;;;;23.98;5.97;;;;;;;;;;5029683;28;20399;-72
2022/03/18 06:13:40;;;;;;;17.58;5.70;;;5.80;99.90;;;;;;5027601;28;20043;-71
2022/03/18 06:16:06;;;;;;;13.93;5.03;;;5.10;99.90;;;;;;5026006;28;20037;-71
2022/03/18 06:18:32;;;;;;;19.77;5.18;;;5.80;99.90;;;;;;5022891;28;20454;-72
2022/03/18 06:20:59;;;;;;;18.17;4.90;;;;;;;;;;5031463;28;20033;-72
2022/03/18 06:23:26;;;;;;;13.60;4.93;;;5.80;99.90;;;;;;5028896;28;20116;-71
2022/03/18 06:25:51;;;;;;;16.67;5.32;;;5.80;99.90;;;;;;5026330;28;20036;-70
2022/03/18 06:28:17;;;;;;;15.73;5.30;;;6.50;99.90;;;;;;5032294;28;20026;-71
2022/03/18 06:30:44;;;;;;;18.63;4.97;;;6.00;99.90;;;;;;5030003;28;20492;-70
2022/03/18 06:33:10;;;;;;;17.27;5.30;;;;;;;;;;5030041;28;20080;-71
2022/03/18 06:35:37;;;;;;;16.35;4.90;;;;;;;;;;5033960;28;20044;-71
2022/03/18 06:38:03;;;;;;;16.63;4.88;;;;;;;;;;5029699;28;20068;-71
2022/03/18 06:40:28;;;;;;;14.98;4.72;;;6.60;99.90;;;;;;5031689;28;20029;-70
2022/03/18 06:42:54;;;;;;;16.08;4.68;;;7.50;96.60;;;;;;5030920;28;20575;-70
2022/03/18 06:45:20;;;;;;;16.05;5.35;;;7.80;96.30;;;;;;5030349;28;20030;-71
2022/03/18 06:47:46;;;;;;;17.92;5.80;;;9.90;88.30;;;;;;5030794;28;20124;-72
2022/03/18 06:50:12;;;;;;;18.20;6.60;;;10.00;87.90;;;;;;5031088;28;20116;-70
2022/03/18 06:52:38;;;;;;;21.83;5.45;;;11.60;76.90;;;;;;5028748;28;20064;-72
2022/03/18 06:55:04;;;;;;;11.23;4.80;;;11.80;76.30;;;;;;5029814;28;20055;-70
2022/03/18 06:57:30;;;;;;;15.95;4.88;;;13.30;66.10;;;;;;5035841;28;20033;-71
2022/03/18 06:59:56;;;;;;;12.93;4.35;;;13.80;63.60;;;;;;5028119;28;20030;-71
2022/03/18 07:02:22;;;;;;;14.52;4.40;;;14.40;60.70;;;;;;5031598;28;20125;-71
2022/03/18 07:04:48;;;;;;;18.95;4.95;;;15.60;55.50;;;;;;5026381;28;20114;-71
2022/03/18 07:07:13;;;;;;;16.33;4.47;;;15.60;55.70;;;;;;5025953;28;20038;-72
2022/03/18 07:09:39;;;;;;;13.18;4.57;;;16.30;53.50;;;;;;5024643;28;20092;-71
2022/03/18 07:12:05;;;;;;;12.57;4.43;;;16.90;48.70;;;;;;5026868;28;20116;-73
2022/03/18 07:14:31;;;;;;;12.75;4.53;;;17.90;43.20;;;;;;5029774;28;20685;-73
2022/03/18 07:19:41;;;;;;;9.80;4.22;;;18.40;42.20;;;;;;5018556;28;20112;-72
2022/03/18 07:22:07;;;;;;;13.02;4.63;;;19.00;40.20;;;;;;5024016;28;20116;-74
2022/03/18 07:24:32;;;;;;;12.75;4.82;;;19.50;37.80;;;;;;5024646;28;20841;-72
2022/03/18 07:26:58;;;;;;;10.95;4.60;;;20.00;36.80;;;;;;5026588;28;20064;-72
2022/03/18 07:29:28;;;;;;;13.70;4.72;;;20.70;35.10;;;;;;5026509;28;20094;-72
2022/03/18 07:31:55;;;;;;;12.80;4.80;;;20.80;35.80;;;;;;5024955;28;20030;-72
2022/03/18 07:34:22;;;;;;;10.30;4.43;;;21.30;35.20;;;;;;5026133;28;20163;-72
2022/03/18 07:36:48;;;;;;;14.93;4.63;;;21.90;33.70;;;;;;5025185;28;20036;-72
2022/03/18 07:39:14;;;;;;;13.55;4.72;;;22.40;32.70;;;;;;5027119;28;20108;-72
2022/03/18 07:41:40;;;;;;;10.10;4.28;;;22.90;31.40;;;;;;5025673;28;20159;-72
2022/03/18 07:44:06;;;;;;;12.02;4.65;;;23.40;30.00;;;;;;5027210;28;20052;-72
2022/03/18 07:46:31;;;;;;;9.70;4.10;;;23.80;29.30;;;;;;5024733;28;20030;-72
2022/03/18 07:48:57;;;;;;;13.90;4.53;;;24.60;27.50;;;;;;5025132;28;20055;-71
2022/03/18 07:51:23;;;;;;;12.32;4.55;;;24.90;26.70;;;;;;5023843;28;20386;-72
2022/03/18 07:53:49;;;;;;;10.25;4.47;;;24.90;27.20;;;;;;5025794;28;20017;-72
2022/03/18 07:56:14;;;;;;;14.20;4.70;;;25.30;26.00;;;;;;5026747;28;20041;-72
2022/03/18 07:58:40;;;;;;;8.90;4.10;;;25.70;26.40;;;;;;5024763;28;20104;-72
2022/03/18 08:01:06;;;;;;;11.85;4.20;;;26.60;24.60;;;;;;5023498;28;20130;-72
2022/03/18 08:03:32;;;;;;;13.50;4.40;;;26.90;24.00;;;;;;5022241;28;20037;-71
2022/03/18 08:05:58;;;;;;;11.10;4.13;;;27.50;24.10;;;;;;5018051;28;20033;-72
2022/03/18 08:08:25;;;;;;;10.60;4.25;;;;;;;;;;5020852;28;20460;-72
2022/03/18 08:10:52;;;;;;;11.45;3.92;;;31.00;24.00;;;;;;5024775;28;20048;-72
2022/03/18 08:13:17;;;;;;;9.95;4.03;;;28.70;22.40;;;;;;5022532;28;20100;-72
2022/03/18 08:15:44;;;;;;;8.70;3.83;;;28.90;22.60;;;;;;5023758;28;20116;-73
2022/03/18 08:18:10;;;;;;;11.18;3.67;;;29.70;20.90;;;;;;5022908;28;20052;-72
2022/03/18 08:20:40;;;;;;;10.43;3.95;;;29.70;21.50;;;;;;5024723;28;20033;-73
2022/03/18 08:23:14;;;;;;;12.48;4.13;;;30.00;21.50;;;;;;5024588;28;20037;-72
2022/03/18 08:25:40;;;;;;;8.55;3.80;;;30.30;21.10;;;;;;5026194;28;20421;-73
2022/03/18 08:28:07;;;;;;;9.55;3.80;;;30.90;19.40;;;;;;5023450;28;20096;-72
2022/03/18 08:30:36;;;;;;;9.77;3.75;;;30.90;19.60;;;;;;5024661;28;20690;-72
2022/03/18 08:33:03;;;;;;;10.07;3.63;;;30.90;20.10;;;;;;5024251;28;20033;-74
2022/03/18 08:35:29;;;;;;;10.50;3.53;;;31.50;18.60;;;;;;5025485;28;20029;-73
2022/03/18 08:37:58;;;;;;;10.95;3.20;;;31.50;19.10;;;;;;5024443;28;20416;-72
2022/03/18 08:40:29;;;;;;;8.98;3.40;;;31.70;18.80;;;;;;5022030;28;20025;-72
2022/03/18 08:42:57;;;;;;;7.88;3.22;;;32.30;19.10;;;;;;5023676;28;20036;-72
2022/03/18 08:45:23;;;;;;;7.95;3.20;;;32.00;17.90;;;;;;5020934;28;20091;-72
2022/03/18 08:47:50;;;;;;;8.23;3.33;;;32.30;17.80;;;;;;5023869;28;20693;-72
2022/03/18 08:50:17;;;;;;;11.10;4.78;;;32.50;17.40;;;;;;5024717;28;20052;-73
2022/03/18 08:52:45;;;;;;;7.68;3.08;;;32.60;17.50;;;;;;5022143;28;20390;-73
2022/03/18 08:55:11;;;;;;;6.30;2.83;;;32.90;18.20;;;;;;5023170;28;20114;-73
2022/03/18 08:57:37;;;;;;;7.22;3.10;;;33.80;16.60;;;;;;5019591;28;20038;-73
2022/03/18 09:00:09;;;;;;;7.65;3.03;;;33.80;17.10;;;;;;5019803;28;20033;-72
2022/03/18 09:02:36;;;;;;;6.60;2.90;;;34.50;16.00;;;;;;5024205;28;20033;-73
2022/03/18 09:05:04;;;;;;;8.10;2.70;;;34.50;15.90;;;;;;5025167;28;20404;-73
2022/03/18 09:07:30;;;;;;;7.28;2.90;;;34.90;15.80;;;;;;5021815;28;20030;-72
2022/03/18 09:09:56;;;;;;;9.18;2.83;;;34.90;16.20;;;;;;5023799;28;20037;-73
2022/03/18 09:12:22;;;;;;;7.47;2.83;;;35.40;15.10;;;;;;5021521;28;20060;-72
2022/03/18 09:14:48;;;;;;;7.28;2.58;;;35.80;14.50;;;;;;5021460;28;20523;-72
2022/03/18 09:17:13;;;;;;;10.05;2.83;;;35.80;14.90;;;;;;5022435;28;20108;-73
2022/03/18 09:19:39;;;;;;;5.80;2.65;;;35.70;15.10;;;;;;5023606;28;20068;-73
2022/03/18 09:22:09;;;;;;;7.82;2.85;;;36.20;14.40;;;;;;5021572;28;20116;-73
2022/03/18 09:24:37;;;;;;;7.50;2.70;;;36.50;13.90;;;;;;5023917;28;20531;-72
2022/03/18 09:27:04;;;;;;;6.57;2.40;;;36.40;14.30;;;;;;5023453;28;20997;-72
2022/03/18 09:29:30;;;;;;;9.65;2.80;;;37.40;13.90;;;;;;5024699;28;20037;-73
2022/03/18 09:31:55;;;;;;;8.25;2.65;;;37.60;14.40;;;;;;5018040;28;20443;-72
2022/03/18 09:34:24;;;;;;;6.57;2.60;;;;;;;;;;5023259;28;20029;-73
2022/03/18 09:36:54;;;;;;;8.48;3.28;;;37.70;14.00;;;;;;5023960;28;20057;-72
2022/03/18 09:39:21;;;;;;;7.55;2.25;;;37.30;14.00;;;;;;5020148;28;20018;-73
2022/03/18 09:41:46;;;;;;;7.90;2.50;;;38.10;15.50;;;;;;5023352;28;20079;-73
2022/03/18 09:44:13;;;;;;;5.90;2.60;;;;;;;;;;5023096;28;20029;-72
2022/03/18 09:46:41;;;;;;;6.30;2.28;;;38.20;12.20;;;;;;5022849;28;20038;-72
2022/03/18 09:49:11;;;;;;;6.72;2.25;;;38.20;11.90;;;;;;5021845;28;20037;-72
2022/03/18 09:51:42;;;;;;;6.55;2.20;;;38.30;12.20;;;;;;5023454;28;20088;-70
2022/03/18 09:54:09;;;;;;;4.85;2.03;;;38.80;18.90;;;;;;5020080;28;20125;-70
2022/03/18 09:56:40;;;;;;;6.97;2.40;;;39.30;14.80;;;;;;5023711;28;20112;-70
2022/03/18 09:59:06;;;;;;;6.00;2.17;;;;;;;;;;5023069;28;20523;-70
2022/03/18 10:01:32;;;;;;;9.48;2.22;;;;;;;;;;5021161;28;20033;-70
2022/03/18 10:04:12;;;;;;;6.13;2.40;;;40.30;13.60;;;;;;5022759;28;20091;-71
2022/03/18 10:06:41;;;;;;;5.45;2.00;;;39.40;11.40;;;;;;5023585;28;20037;-71
2022/03/18 10:09:07;;;;;;;4.72;2.10;;;;;;;;;;5023067;28;20499;-70
2022/03/18 10:11:37;;;;;;;5.25;1.98;;;39.60;11.00;;;;;;5021817;28;20604;-71
2022/03/18 10:14:07;;;;;;;6.28;2.03;;;40.90;12.10;;;;;;5024255;28;20033;-71
2022/03/18 10:16:44;;;;;;;6.28;2.30;;;41.00;12.10;;;;;;5022970;28;20112;-71
2022/03/18 10:19:11;;;;;;;4.97;2.10;;;;;;;;;;5024059;28;20045;-71
2022/03/18 10:21:57;;;;;;;6.95;2.25;;;40.50;11.80;;;;;;5025116;28;20443;-70
2022/03/18 10:24:31;;;;;;;5.38;2.20;;;40.00;10.70;;;;;;5026901;28;20035;-71
2022/03/18 10:27:14;;;;;;;7.32;2.25;;;39.50;10.70;;;;;;5026633;28;20037;-71
2022/03/18 10:29:47;;;;;;;4.68;2.05;;;40.00;10.70;;;;;;5026330;28;20125;-71
2022/03/18 10:32:15;;;;;;;6.20;2.30;;;40.10;10.50;;;;;;5026732;28;20021;-71
2022/03/18 10:37:44;;;;;;;6.30;2.28;;;39.80;10.50;;;;;;5023492;28;20127;-71
2022/03/18 10:40:12;;;;;;;6.82;2.38;;;40.60;11.10;;;;;;5023439;28;20108;-71
2022/03/18 10:42:38;;;;;;;5.80;2.22;;;;;;;;;;5023743;28;20103;-71
2022/03/18 10:45:05;;;;;;;6.00;2.20;;;40.30;10.50;;;;;;5024052;28;20026;-71
2022/03/18 10:47:41;;;;;;;5.70;2.10;;;40.40;10.40;;;;;;5027812;28;20108;-71
2022/03/18 10:50:10;;;;;;;17.23;14.45;;;40.70;11.80;;;;;;5027129;28;20057;-71
2022/03/18 10:52:40;;;;;;;36.65;33.05;;;40.00;14.40;;;;;;5023110;28;20022;-71
2022/03/18 10:55:19;;;;;;;16.75;15.20;;;40.60;10.70;;;;;;5026384;28;20627;-72
2022/03/18 10:57:56;;;;;;;14.07;12.60;;;40.80;10.40;;;;;;5025277;28;20055;-70
2022/03/18 11:00:24;;;;;;;6.40;2.33;;;40.90;11.10;;;;;;5023897;28;20107;-71
2022/03/18 11:02:52;;;;;;;4.78;2.00;;;41.10;11.00;;;;;;5026816;28;20083;-72
2022/03/18 11:05:20;;;;;;;6.68;2.38;;;41.40;10.70;;;;;;5028399;28;20567;-73
2022/03/18 11:07:47;;;;;;;5.80;2.30;;;41.50;10.90;;;;;;5018302;28;20053;-72
2022/03/18 11:13:02;;;;;;;4.95;2.10;;;42.10;10.50;;;;;;5027407;28;20076;-71
2022/03/18 11:15:29;;;;;;;8.75;2.40;;;42.30;10.30;;;;;;5020534;28;20040;-71
2022/03/18 11:17:57;;;;;;;4.95;1.98;;;42.20;10.20;;;;;;5028991;28;20160;-71
2022/03/18 11:20:27;;;;;;;6.70;2.50;;;42.30;10.00;;;;;;5030632;28;20030;-72
2022/03/18 11:22:54;;;;;;;4.53;1.95;;;42.60;19.10;;;;;;5029029;28;20112;-72
2022/03/18 11:25:21;;;;;;;7.25;2.35;;;42.30;9.40;;;;;;5023769;28;20026;-72
2022/03/18 11:27:47;;;;;;;5.57;2.10;;;42.10;9.80;;;;;;5023760;28;20544;-72
2022/03/18 11:30:22;;;;;;;6.80;3.60;;;42.40;9.90;;;;;;5027653;28;20061;-72
2022/03/18 11:33:06;;;;;;;5.97;2.83;;;42.70;10.20;;;;;;5029650;28;20017;-72
2022/03/18 11:35:52;;;;;;;4.65;1.90;;;42.10;10.10;;;;;;5031872;28;20032;-72
2022/03/18 11:38:23;;;;;;;5.13;2.05;;;42.60;15.90;;;;;;5029337;28;20029;-73
2022/03/18 11:40:53;;;;;;;4.28;2.13;;;41.80;9.40;;;;;;5023626;28;20079;-73
2022/03/18 11:43:41;;;;;;;6.25;2.92;;;43.60;9.70;;;;;;5022750;28;20125;-72
2022/03/18 11:46:13;;;;;;;16.27;3.10;;;43.60;18.50;;;;;;5029660;28;20121;-72
2022/03/18 11:49:02;;;;;;;5.40;2.08;;;44.20;9.50;;;;;;5023227;28;20076;-72
2022/03/18 11:51:32;;;;;;;;;;;43.40;8.70;;;;;;5024636;28;20412;-71
2022/03/18 11:54:00;;;;;;;5.90;2.10;;;43.70;8.20;;;;;;5022864;28;20372;-72
2022/03/18 11:56:50;;;;;;;7.13;2.08;;;43.00;16.70;;;;;;5039572;28;20026;-71
2022/03/18 11:59:24;;;;;;;41.47;35.83;;;43.90;11.50;;;;;;5028134;28;20436;-72
2022/03/18 12:02:00;;;;;;;13.40;8.75;;;43.30;8.50;;;;;;5028872;28;20111;-71
2022/03/18 12:07:10;;;;;;;26.48;19.48;;;43.60;8.10;;;;;;5026027;28;20454;-73
2022/03/18 12:09:48;;;;;;;12.88;8.25;;;43.90;8.70;;;;;;5023008;28;20045;-72
2022/03/18 12:12:15;;;;;;;26.23;18.73;;;44.40;9.30;;;;;;5017022;28;20033;-71
2022/03/18 12:14:41;;;;;;;5.65;2.95;;;;;;;;;;5032898;28;20473;-72
2022/03/18 12:17:07;;;;;;;8.45;1.73;;;44.70;18.90;;;;;;5025489;28;20029;-71
2022/03/18 12:19:35;;;;;;;6.30;1.83;;;44.90;7.80;;;;;;5026653;28;20050;-72
2022/03/18 12:22:01;;;;;;;14.63;13.07;;;;;;;;;;5028319;28;20029;-71
2022/03/18 12:24:32;;;;;;;6.97;3.08;;;45.00;12.40;;;;;;5027903;28;20034;-71
2022/03/18 12:27:00;;;;;;;15.40;12.13;;;;;;;;;;5026824;28;20038;-71
2022/03/18 12:29:27;;;;;;;11.37;2.60;;;45.40;8.70;;;;;;5029792;28;20029;-71
2022/03/18 12:32:09;;;;;;;7.00;2.58;;;44.80;8.70;;;;;;5025195;28;20492;-71
2022/03/18 12:34:46;;;;;;;5.00;1.80;;;44.90;7.80;;;;;;5027692;28;20053;-71
2022/03/18 12:37:22;;;;;;;10.50;9.50;;;45.30;13.10;;;;;;5027067;28;20116;-71
2022/03/18 12:40:06;;;;;;;4.03;1.60;;;45.30;7.30;;;;;;5025310;28;20127;-71
2022/03/18 12:42:44;;;;;;;4.35;2.45;;;45.00;14.70;;;;;;5026221;28;20107;-71
2022/03/18 12:45:11;;;;;;;9.13;3.10;;;45.00;14.40;;;;;;5024062;28;20638;-72
2022/03/18 12:47:38;;;;;;;4.65;1.58;;;44.60;7.30;;;;;;5028166;28;20068;-72
2022/03/18 12:50:04;;;;;;;4.13;2.00;;;44.80;13.70;;;;;;5026915;28;20041;-71
2022/03/18 12:52:30;;;;;;;4.50;1.60;;;43.40;16.20;;;;;;5026086;28;20025;-71
2022/03/18 12:55:10;;;;;;;6.97;2.67;;;41.40;12.70;;;;;;5025848;28;20047;-71
2022/03/18 12:57:43;;;;;;;5.28;1.75;;;39.30;9.00;;;;;;5025611;28;20033;-71
2022/03/18 13:00:12;;;;;;;6.32;2.45;;;36.20;9.50;;;;;;5025244;28;20532;-70
2022/03/18 13:02:41;;;;;;;5.63;1.90;;;37.50;10.30;;;;;;5041326;28;20033;-70
2022/03/18 13:05:08;;;;;;;4.85;2.60;;;38.60;12.20;;;;;;5028272;28;20318;-71
2022/03/18 13:07:35;;;;;;;4.82;1.90;;;;;;;;;;5025346;28;20817;-71
2022/03/18 13:10:03;;;;;;;6.07;1.90;;;36.30;10.40;;;;;;5027462;28;20033;-71
2022/03/18 13:12:30;;;;;;;8.73;1.60;;;37.70;18.90;;;;;;5027682;28;20045;-71
2022/03/18 13:15:11;;;;;;;6.00;3.50;;;35.30;10.90;;;;;;5026107;28;20849;-71
2022/03/18 13:17:37;;;;;;;10.23;8.80;;;;;;;;;;5025099;28;20025;-71
2022/03/18 13:20:03;;;;;;;4.82;2.15;;;35.50;17.20;;;;;;5026269;28;20041;-71
2022/03/18 13:22:29;;;;;;;6.05;3.67;;;;;;;;;;5024457;28;20025;-71
2022/03/18 13:24:59;;;;;;;8.07;1.90;;;34.60;11.70;;;;;;5027293;28;20152;-71
2022/03/18 13:27:26;;;;;;;4.60;1.98;;;34.60;11.40;;;;;;5027202;28;20103;-72
2022/03/18 13:32:53;;;;;;;5.80;1.60;;;35.40;11.00;;;;;;5024776;28;20044;-71